createdAt,value
2019-03-23T00:00:35.899Z,15.37
2019-03-23T00:03:04.771Z,19.13
2019-03-23T00:05:33.200Z,13.40
2019-03-23T00:08:01.632Z,16.67
2019-03-23T00:10:30.051Z,16.40
2019-03-23T00:12:58.495Z,16.87
2019-03-23T00:15:26.989Z,13.87
2019-03-23T00:17:55.459Z,20.60
2019-03-23T00:20:23.887Z,12.70
2019-03-23T00:22:52.339Z,11.20
2019-03-23T00:25:21.043Z,15.03
2019-03-23T00:27:49.474Z,13.57
2019-03-23T00:30:17.892Z,19.00
2019-03-23T00:32:46.331Z,13.47
2019-03-23T00:35:14.758Z,8.97
2019-03-23T00:37:43.204Z,14.33
2019-03-23T00:40:11.761Z,19.03
2019-03-23T00:42:40.200Z,12.33
2019-03-23T00:45:09.556Z,12.67
2019-03-23T00:47:38.012Z,13.40
2019-03-23T00:50:08.177Z,14.57
2019-03-23T00:52:36.653Z,14.90
2019-03-23T00:55:07.012Z,14.27
2019-03-23T00:57:35.449Z,9.30
2019-03-23T01:00:09.565Z,10.07
2019-03-23T01:02:38.010Z,19.60
2019-03-23T01:05:07.891Z,13.60
2019-03-23T01:07:36.331Z,19.43
2019-03-23T01:10:07.487Z,15.33
2019-03-23T01:12:36.069Z,15.20
2019-03-23T01:15:07.523Z,11.10
2019-03-23T01:17:36.087Z,12.20
2019-03-23T01:20:07.270Z,11.80
2019-03-23T01:22:35.704Z,14.03
2019-03-23T01:25:07.963Z,12.73
2019-03-23T01:27:36.412Z,14.93
2019-03-23T01:30:10.574Z,14.80
2019-03-23T01:32:39.019Z,12.80
2019-03-23T01:35:08.284Z,18.47
2019-03-23T01:37:36.736Z,12.70
2019-03-23T01:40:06.590Z,9.30
2019-03-23T01:42:35.026Z,12.60
2019-03-23T01:45:04.532Z,14.67
2019-03-23T01:47:33.002Z,13.87
2019-03-23T01:50:01.432Z,13.97
2019-03-23T01:52:29.852Z,9.70
2019-03-23T01:54:58.294Z,13.60
2019-03-23T01:57:26.726Z,11.70
2019-03-23T01:59:55.162Z,28.73
2019-03-23T02:02:23.587Z,13.73
2019-03-23T02:04:52.035Z,10.60
2019-03-23T02:07:20.467Z,10.33
2019-03-23T02:09:48.907Z,16.47
2019-03-23T02:12:17.343Z,11.13
2019-03-23T02:14:45.873Z,11.00
2019-03-23T02:17:14.297Z,9.37
2019-03-23T02:19:42.741Z,13.07
2019-03-23T02:22:11.176Z,11.93
2019-03-23T02:24:39.619Z,11.70
2019-03-23T02:27:08.034Z,14.17
2019-03-23T02:29:36.476Z,11.30
2019-03-23T02:32:04.964Z,9.40
2019-03-23T02:34:33.405Z,12.50
2019-03-23T02:37:01.829Z,10.30
2019-03-23T02:42:32.187Z,9.33
2019-03-23T02:45:00.766Z,10.40
2019-03-23T02:47:29.209Z,13.87
2019-03-23T02:49:57.656Z,13.57
2019-03-23T02:52:26.089Z,11.43
2019-03-23T02:54:54.511Z,11.87
2019-03-23T02:57:23.040Z,13.50
2019-03-23T02:59:51.570Z,13.40
2019-03-23T03:02:20.188Z,12.63
2019-03-23T03:04:48.655Z,12.40
2019-03-23T03:07:17.084Z,14.00
2019-03-23T03:09:45.526Z,12.07
2019-03-23T03:12:13.975Z,9.03
2019-03-23T03:14:42.428Z,17.00
2019-03-23T03:17:10.851Z,10.60
2019-03-23T03:19:39.286Z,11.90
2019-03-23T03:22:07.778Z,13.27
2019-03-23T03:24:36.236Z,11.33
2019-03-23T03:27:04.729Z,12.60
2019-03-23T03:29:33.164Z,11.90
2019-03-23T03:32:01.688Z,13.83
2019-03-23T03:34:30.132Z,15.20
2019-03-23T03:36:58.573Z,16.67
2019-03-23T03:39:27.031Z,24.47
2019-03-23T03:41:55.468Z,14.03
2019-03-23T03:44:23.902Z,12.97
2019-03-23T03:46:52.358Z,14.17
2019-03-23T03:49:20.806Z,17.23
2019-03-23T03:51:49.227Z,13.67
2019-03-23T03:54:17.668Z,15.33
2019-03-23T03:56:46.092Z,10.63
2019-03-23T03:59:14.568Z,11.97
2019-03-23T04:01:43.132Z,12.03
2019-03-23T04:04:11.612Z,12.73
2019-03-23T04:06:40.042Z,13.97
2019-03-23T04:09:08.476Z,14.40
2019-03-23T04:11:36.910Z,12.53
2019-03-23T04:14:05.343Z,19.37
2019-03-23T04:16:33.774Z,14.83
2019-03-23T04:19:02.320Z,14.43
2019-03-23T04:21:30.793Z,16.00
2019-03-23T04:23:59.324Z,14.73
2019-03-23T04:26:27.774Z,14.00
2019-03-23T04:28:56.207Z,13.07
2019-03-23T04:31:24.640Z,14.37
2019-03-23T04:33:53.098Z,11.57
2019-03-23T04:36:21.513Z,12.83
2019-03-23T04:38:49.952Z,13.07
2019-03-23T04:41:18.421Z,10.73
2019-03-23T04:43:46.881Z,9.93
2019-03-23T04:46:15.305Z,15.00
2019-03-23T04:48:43.805Z,10.80
2019-03-23T04:51:12.293Z,11.00
2019-03-23T04:53:40.780Z,15.33
2019-03-23T04:56:09.519Z,11.90
2019-03-23T04:58:38.249Z,16.57
2019-03-23T05:01:06.776Z,27.13
2019-03-23T05:03:35.420Z,52.10
2019-03-23T05:06:04.076Z,51.80
2019-03-23T05:08:33.635Z,39.97
2019-03-23T05:11:02.402Z,36.50
2019-03-23T05:13:31.080Z,31.30
2019-03-23T05:15:59.690Z,27.17
2019-03-23T05:18:28.309Z,21.50
2019-03-23T05:20:56.907Z,19.47
2019-03-23T05:23:25.498Z,24.87
2019-03-23T05:25:54.105Z,12.83
2019-03-23T05:28:22.660Z,13.33
2019-03-23T05:30:51.324Z,9.60
2019-03-23T05:33:19.923Z,19.43
2019-03-23T05:35:48.527Z,12.30
2019-03-23T05:38:17.179Z,13.53
2019-03-23T05:40:45.967Z,10.63
2019-03-23T05:43:14.557Z,11.93
2019-03-23T05:45:43.135Z,17.60
2019-03-23T05:48:11.692Z,11.00
2019-03-23T05:50:40.313Z,13.10
2019-03-23T05:53:08.921Z,11.10
2019-03-23T05:55:37.546Z,14.00
2019-03-23T05:58:06.091Z,11.27
2019-03-23T06:00:34.617Z,12.27
2019-03-23T06:03:03.176Z,13.97
2019-03-23T06:05:31.833Z,10.37
2019-03-23T06:08:00.575Z,12.70
2019-03-23T06:10:29.232Z,11.37
2019-03-23T06:12:57.735Z,13.33
2019-03-23T06:15:26.262Z,15.93
2019-03-23T06:17:54.895Z,12.57
2019-03-23T06:20:23.435Z,10.10
2019-03-23T06:22:52.042Z,11.77
2019-03-23T06:25:20.647Z,28.93
2019-03-23T06:27:49.238Z,8.70
2019-03-23T06:30:17.877Z,12.60
2019-03-23T06:32:46.558Z,11.80
2019-03-23T06:35:15.054Z,12.07
2019-03-23T06:37:43.531Z,14.53
2019-03-23T06:40:12.185Z,22.20
2019-03-23T06:42:40.757Z,14.10
2019-03-23T06:45:10.975Z,11.43
2019-03-23T06:47:39.666Z,12.13
2019-03-23T06:50:10.289Z,12.57
2019-03-23T06:52:38.811Z,11.90
2019-03-23T06:55:09.025Z,23.03
2019-03-23T06:57:37.552Z,11.90
2019-03-23T07:00:09.413Z,15.00
2019-03-23T07:02:37.974Z,14.07
2019-03-23T07:05:08.331Z,14.17
2019-03-23T07:07:36.970Z,12.57
2019-03-23T07:10:08.289Z,13.57
2019-03-23T07:12:36.967Z,12.00
2019-03-23T07:15:19.428Z,15.20
2019-03-23T07:17:40.459Z,14.90
2019-03-23T07:20:11.618Z,22.53
2019-03-23T07:22:40.222Z,16.80
2019-03-23T07:25:10.572Z,16.83
2019-03-23T07:27:39.126Z,17.77
2019-03-23T07:30:13.469Z,19.00
2019-03-23T07:32:42.032Z,20.00
2019-03-23T07:35:10.947Z,20.40
2019-03-23T07:37:39.576Z,17.00
2019-03-23T07:40:09.684Z,17.47
2019-03-23T07:42:38.254Z,19.50
2019-03-23T07:45:09.433Z,15.03
2019-03-23T07:47:38.137Z,19.10
2019-03-23T07:50:08.696Z,17.00
2019-03-23T07:52:37.291Z,16.73
2019-03-23T07:55:25.050Z,18.73
2019-03-23T07:58:12.823Z,14.07
2019-03-23T08:00:41.299Z,15.30
2019-03-23T08:03:29.222Z,15.30
2019-03-23T08:05:57.763Z,17.37
2019-03-23T08:08:26.275Z,11.43
2019-03-23T08:10:55.200Z,11.70
2019-03-23T08:13:23.704Z,18.20
2019-03-23T08:15:52.213Z,12.23
2019-03-23T08:18:20.857Z,15.70
2019-03-23T08:20:49.404Z,18.23
2019-03-23T08:23:17.967Z,17.83
2019-03-23T08:25:46.529Z,15.40
2019-03-23T08:28:15.093Z,14.47
2019-03-23T08:30:43.633Z,20.23
2019-03-23T08:33:12.126Z,14.93
2019-03-23T08:35:40.616Z,14.60
2019-03-23T08:38:09.116Z,14.60
2019-03-23T08:40:37.578Z,18.00
2019-03-23T08:43:06.203Z,17.20
2019-03-23T08:45:34.676Z,22.00
2019-03-23T08:48:03.191Z,15.63
2019-03-23T08:50:31.734Z,15.47
2019-03-23T08:53:00.261Z,22.80
2019-03-23T08:55:28.919Z,15.43
2019-03-23T08:57:57.485Z,24.57
2019-03-23T09:00:26.019Z,16.57
2019-03-23T09:02:54.661Z,16.03
2019-03-23T09:05:23.142Z,17.20
2019-03-23T09:07:52.689Z,17.40
2019-03-23T09:10:21.392Z,20.10
2019-03-23T09:12:49.925Z,24.63
2019-03-23T09:15:18.398Z,20.23
2019-03-23T09:17:46.992Z,22.40
2019-03-23T09:20:15.662Z,17.70
2019-03-23T09:22:44.157Z,31.23
2019-03-23T09:25:12.711Z,29.50
2019-03-23T09:27:41.517Z,17.13
2019-03-23T09:30:12.140Z,25.83
2019-03-23T09:32:40.914Z,27.80
2019-03-23T09:35:09.544Z,29.53
2019-03-23T09:37:38.475Z,26.00
2019-03-23T09:40:11.046Z,20.50
2019-03-23T09:42:37.777Z,25.57
2019-03-23T09:45:08.232Z,28.50
2019-03-23T09:47:37.076Z,23.57
2019-03-23T09:50:08.480Z,24.40
2019-03-23T09:52:36.972Z,32.30
2019-03-23T09:55:07.983Z,29.73
2019-03-23T09:57:36.524Z,27.20
2019-03-23T10:00:07.475Z,33.43
2019-03-23T10:02:36.030Z,21.87
2019-03-23T10:05:06.832Z,28.80
2019-03-23T10:07:35.294Z,24.10
2019-03-23T10:10:04.493Z,34.03
2019-03-23T10:12:33.146Z,30.00
2019-03-23T10:15:01.720Z,26.57
2019-03-23T10:17:30.352Z,28.33
2019-03-23T10:19:58.935Z,28.07
2019-03-23T10:22:27.420Z,29.10
2019-03-23T10:24:55.996Z,26.53
2019-03-23T10:27:24.499Z,27.00
2019-03-23T10:29:53.052Z,23.27
2019-03-23T10:32:21.557Z,29.23
2019-03-23T10:34:50.144Z,30.00
2019-03-23T10:37:18.670Z,32.40
2019-03-23T10:39:47.112Z,27.50
2019-03-23T10:42:16.378Z,27.63
2019-03-23T10:44:45.073Z,32.07
2019-03-23T10:47:32.949Z,31.10
2019-03-23T10:50:20.751Z,33.40
2019-03-23T10:53:08.530Z,31.80
2019-03-23T10:55:56.315Z,31.70
2019-03-23T10:58:44.105Z,38.57
2019-03-23T11:01:31.899Z,35.80
2019-03-23T11:04:19.675Z,31.00
2019-03-23T11:07:07.451Z,38.20
2019-03-23T11:09:55.243Z,30.23
2019-03-23T11:12:43.015Z,29.00
2019-03-23T11:15:23.872Z,30.20
2019-03-23T11:18:04.639Z,29.40
2019-03-23T11:20:45.268Z,29.43
2019-03-23T11:23:26.027Z,32.90
2019-03-23T11:26:06.952Z,36.57
2019-03-23T11:28:47.626Z,31.33
2019-03-23T11:31:28.546Z,29.90
2019-03-23T11:34:17.567Z,31.87
2019-03-23T11:36:52.211Z,31.00
2019-03-23T11:39:33.059Z,27.90
2019-03-23T11:42:13.790Z,35.40
2019-03-23T11:44:54.789Z,31.47
2019-03-23T11:47:35.547Z,30.83
2019-03-23T11:50:16.431Z,33.30
2019-03-23T11:52:57.098Z,38.30
2019-03-23T11:55:38.149Z,31.87
2019-03-23T11:58:17.024Z,40.23
2019-03-23T12:01:04.847Z,28.53
2019-03-23T12:03:52.614Z,38.60
2019-03-23T12:06:40.417Z,33.03
2019-03-23T12:09:28.172Z,29.50
2019-03-23T12:12:15.971Z,37.63
2019-03-23T12:14:56.591Z,38.80
2019-03-23T12:17:37.342Z,32.53
2019-03-23T12:20:18.421Z,32.53
2019-03-23T12:22:59.074Z,28.93
2019-03-23T12:25:39.676Z,35.57
2019-03-23T12:28:20.608Z,28.07
2019-03-23T12:31:00.944Z,29.93
2019-03-23T12:33:41.872Z,27.47
2019-03-23T12:36:22.446Z,25.83
2019-03-23T12:39:04.540Z,33.57
2019-03-23T12:41:45.103Z,32.40
2019-03-23T12:44:26.011Z,32.47
2019-03-23T12:47:06.979Z,35.50
2019-03-23T12:49:48.093Z,35.80
2019-03-23T12:52:28.890Z,31.57
2019-03-23T12:55:09.719Z,26.63
2019-03-23T12:57:50.672Z,28.63
2019-03-23T13:00:31.756Z,33.07
2019-03-23T13:03:12.389Z,31.50
2019-03-23T13:05:53.171Z,27.90
2019-03-23T13:08:21.610Z,29.03
2019-03-23T13:11:09.397Z,26.27
2019-03-23T13:13:57.166Z,29.70
2019-03-23T13:16:45.004Z,33.57
2019-03-23T13:19:32.790Z,24.13
2019-03-23T13:22:20.562Z,27.63
2019-03-23T13:25:08.826Z,28.87
2019-03-23T13:27:56.604Z,25.60
2019-03-23T13:30:44.381Z,24.20
2019-03-23T13:33:32.180Z,28.90
2019-03-23T13:36:19.978Z,30.83
2019-03-23T13:38:48.426Z,34.20
2019-03-23T13:41:56.948Z,29.57
2019-03-23T13:44:44.807Z,28.60
2019-03-23T13:47:32.644Z,32.90
2019-03-23T13:50:41.141Z,29.03
2019-03-23T13:53:28.919Z,31.17
2019-03-23T13:56:16.760Z,32.87
2019-03-23T13:59:04.568Z,30.77
2019-03-23T14:01:52.359Z,27.17
2019-03-23T14:04:40.131Z,29.53
2019-03-23T14:07:27.934Z,28.23
2019-03-23T14:10:15.704Z,30.70
2019-03-23T14:13:03.485Z,29.60
2019-03-23T14:15:44.277Z,30.37
2019-03-23T14:18:24.956Z,42.23
2019-03-23T14:21:05.649Z,32.17
2019-03-23T14:23:46.660Z,31.73
2019-03-23T14:26:15.087Z,37.17
2019-03-23T14:29:02.868Z,34.13
2019-03-23T14:31:50.660Z,30.93
2019-03-23T14:34:38.428Z,35.83
2019-03-23T14:37:26.255Z,37.10
2019-03-23T14:40:14.230Z,26.77
2019-03-23T14:43:02.029Z,31.97
2019-03-23T14:45:49.815Z,37.87
2019-03-23T14:48:37.598Z,40.00
2019-03-23T14:51:25.368Z,29.17
2019-03-23T14:54:13.152Z,29.17
2019-03-23T14:57:00.918Z,39.13
2019-03-23T14:59:48.695Z,35.90
2019-03-23T15:02:36.555Z,34.27
2019-03-23T15:05:24.319Z,40.77
2019-03-23T15:08:12.121Z,32.30
2019-03-23T15:10:59.892Z,32.33
2019-03-23T15:13:47.705Z,39.93
2019-03-23T15:16:26.518Z,32.93
2019-03-23T15:19:15.632Z,31.77
2019-03-23T15:22:03.853Z,30.60
2019-03-23T15:24:51.647Z,31.90
2019-03-23T15:27:20.081Z,29.53
2019-03-23T15:30:07.951Z,34.47
2019-03-23T15:32:55.738Z,36.33
2019-03-23T15:35:24.177Z,26.90
2019-03-23T15:40:59.369Z,45.13
2019-03-23T15:43:28.953Z,30.63
2019-03-23T15:45:57.437Z,34.80
2019-03-23T15:48:26.203Z,34.83
2019-03-23T15:50:54.792Z,35.33
2019-03-23T15:53:23.484Z,28.50
2019-03-23T15:55:52.242Z,42.47
2019-03-23T15:58:20.717Z,29.93
2019-03-23T16:00:49.350Z,29.93
2019-03-23T16:03:17.883Z,30.33
2019-03-23T16:05:46.560Z,31.10
2019-03-23T16:08:15.063Z,39.83
2019-03-23T16:10:43.726Z,36.03
2019-03-23T16:13:12.370Z,38.43
2019-03-23T16:15:40.991Z,36.13
2019-03-23T16:18:09.601Z,44.57
2019-03-23T16:20:38.158Z,34.47
2019-03-23T16:23:07.825Z,34.47
2019-03-23T16:25:36.564Z,39.63
2019-03-23T16:28:05.153Z,34.37
2019-03-23T16:30:34.075Z,29.17
2019-03-23T16:33:02.689Z,37.53
2019-03-23T16:35:31.390Z,30.13
2019-03-23T16:37:59.998Z,33.53
2019-03-23T16:40:28.626Z,31.60
2019-03-23T16:42:57.251Z,33.40
2019-03-23T16:45:25.876Z,32.53
2019-03-23T16:47:54.414Z,26.30
2019-03-23T16:50:23.094Z,36.57
2019-03-23T16:52:51.816Z,35.73
2019-03-23T16:55:20.575Z,36.50
2019-03-23T16:57:49.255Z,36.10
2019-03-23T17:00:20.842Z,38.50
2019-03-23T17:02:49.496Z,33.87
2019-03-23T17:05:18.103Z,36.63
2019-03-23T17:07:46.885Z,39.73
2019-03-23T17:10:15.852Z,37.43
2019-03-23T17:12:54.822Z,39.83
2019-03-23T17:15:15.077Z,32.23
2019-03-23T17:17:43.705Z,49.00
2019-03-23T17:20:14.978Z,53.80
2019-03-23T17:22:43.254Z,41.03
2019-03-23T17:25:12.086Z,35.03
2019-03-23T17:27:40.864Z,39.30
2019-03-23T17:30:10.168Z,34.80
2019-03-23T17:32:39.066Z,28.67
2019-03-23T17:35:08.587Z,37.67
2019-03-23T17:37:37.339Z,50.50
2019-03-23T17:40:07.547Z,37.10
2019-03-23T17:42:36.401Z,47.37
2019-03-23T17:45:09.140Z,35.00
2019-03-23T17:47:37.799Z,36.53
2019-03-23T17:50:06.639Z,35.10
2019-03-23T17:52:35.226Z,34.00
2019-03-23T17:55:05.849Z,31.83
2019-03-23T17:57:34.507Z,35.13
2019-03-23T18:00:05.406Z,31.87
2019-03-23T18:02:33.964Z,43.63
2019-03-23T18:05:02.603Z,35.60
2019-03-23T18:07:31.183Z,30.67
2019-03-23T18:09:59.702Z,34.03
2019-03-23T18:12:28.256Z,38.50
2019-03-23T18:14:56.889Z,25.57
2019-03-23T18:17:25.503Z,30.50
2019-03-23T18:19:54.073Z,28.20
2019-03-23T18:22:22.734Z,33.33
2019-03-23T18:24:51.387Z,30.53
2019-03-23T18:27:20.076Z,29.10
2019-03-23T18:29:48.575Z,38.30
2019-03-23T18:32:17.211Z,41.30
2019-03-23T18:34:45.678Z,43.53
2019-03-23T18:37:14.340Z,48.07
2019-03-23T18:39:42.940Z,31.40
2019-03-23T18:42:11.628Z,33.90
2019-03-23T18:44:40.268Z,35.43
2019-03-23T18:47:08.860Z,44.97
2019-03-23T18:49:37.473Z,42.63
2019-03-23T18:52:06.207Z,45.97
2019-03-23T18:54:34.839Z,41.33
2019-03-23T18:57:03.457Z,48.40
2019-03-23T18:59:32.065Z,59.23
2019-03-23T19:02:00.653Z,48.80
2019-03-23T19:04:29.285Z,53.53
2019-03-23T19:06:57.863Z,45.27
2019-03-23T19:09:26.412Z,55.87
2019-03-23T19:11:54.959Z,56.60
2019-03-23T19:14:23.595Z,56.07
2019-03-23T19:16:52.104Z,66.30
2019-03-23T19:19:20.535Z,64.13
2019-03-23T19:21:49.078Z,62.77
2019-03-23T19:24:17.576Z,61.80
2019-03-23T19:26:47.093Z,65.03
2019-03-23T19:29:17.561Z,61.77
2019-03-23T19:31:47.069Z,60.20
2019-03-23T19:34:15.545Z,67.83
2019-03-23T19:36:44.323Z,63.10
2019-03-23T19:39:12.848Z,60.33
2019-03-23T19:41:41.314Z,70.13
2019-03-23T19:44:09.865Z,68.83
2019-03-23T19:46:38.399Z,64.83
2019-03-23T19:49:06.846Z,57.87
2019-03-23T19:51:35.340Z,59.67
2019-03-23T19:54:03.915Z,60.47
2019-03-23T19:56:32.356Z,74.63
2019-03-23T19:59:00.886Z,64.57
2019-03-23T20:01:29.418Z,70.70
2019-03-23T20:03:58.018Z,75.90
2019-03-23T20:06:26.462Z,70.60
2019-03-23T20:08:54.934Z,86.70
2019-03-23T20:11:23.538Z,83.47
2019-03-23T20:13:58.686Z,91.80
2019-03-23T20:16:22.344Z,84.50
2019-03-23T20:18:50.936Z,104.23
2019-03-23T20:21:19.484Z,91.87
2019-03-23T20:23:48.032Z,89.10
2019-03-23T20:26:16.532Z,80.97
2019-03-23T20:28:45.096Z,93.37
2019-03-23T20:31:13.658Z,95.07
2019-03-23T20:33:42.329Z,98.63
2019-03-23T20:36:10.915Z,84.03
2019-03-23T20:38:39.459Z,81.27
2019-03-23T20:41:07.968Z,94.10
2019-03-23T20:43:36.446Z,85.13
2019-03-23T20:46:05.924Z,82.27
2019-03-23T20:48:36.546Z,85.43
2019-03-23T20:51:05.339Z,90.90
2019-03-23T20:53:33.918Z,90.90
2019-03-23T20:56:02.533Z,78.60
2019-03-23T20:58:31.203Z,85.50
2019-03-23T21:00:59.815Z,80.10
2019-03-23T21:03:28.427Z,85.73
2019-03-23T21:05:56.982Z,82.60
2019-03-23T21:08:25.694Z,76.40
2019-03-23T21:10:54.406Z,77.10
2019-03-23T21:13:23.032Z,86.97
2019-03-23T21:15:51.666Z,82.03
2019-03-23T21:18:20.289Z,73.73
2019-03-23T21:20:48.881Z,74.77
2019-03-23T21:23:17.530Z,79.40
2019-03-23T21:25:46.246Z,83.30
2019-03-23T21:28:14.927Z,82.27
2019-03-23T21:30:43.561Z,81.20
2019-03-23T21:33:12.110Z,94.37
2019-03-23T21:35:40.844Z,93.73
2019-03-23T21:38:09.359Z,95.37
2019-03-23T21:40:37.821Z,86.00
2019-03-23T21:43:06.375Z,88.77
2019-03-23T21:45:40.673Z,91.00
2019-03-23T21:48:09.179Z,86.70
2019-03-23T21:50:47.081Z,81.67
2019-03-23T21:53:07.856Z,75.83
2019-03-23T21:55:36.409Z,86.53
2019-03-23T21:58:04.937Z,75.87
2019-03-23T22:00:34.834Z,78.03
2019-03-23T22:03:03.516Z,80.10
2019-03-23T22:05:32.174Z,76.17
2019-03-23T22:08:00.711Z,72.57
2019-03-23T22:10:30.372Z,86.73
2019-03-23T22:12:59.978Z,76.40
2019-03-23T22:15:30.329Z,74.90
2019-03-23T22:17:59.340Z,76.30
2019-03-23T22:20:27.999Z,80.33
2019-03-23T22:22:56.609Z,85.30
2019-03-23T22:25:25.201Z,81.63
2019-03-23T22:27:53.801Z,78.17
2019-03-23T22:30:22.647Z,79.07
2019-03-23T22:32:51.812Z,81.63
2019-03-23T22:35:20.355Z,77.20
2019-03-23T22:37:48.943Z,83.40
2019-03-23T22:40:17.714Z,83.30
2019-03-23T22:42:46.159Z,85.87
2019-03-23T22:45:14.683Z,76.40
2019-03-23T22:47:43.198Z,77.67
2019-03-23T22:50:13.682Z,80.50
2019-03-23T22:52:42.148Z,77.73
2019-03-23T22:55:10.812Z,74.83
2019-03-23T22:57:39.340Z,80.40
2019-03-23T23:00:11.924Z,78.90
2019-03-23T23:02:40.484Z,83.10
2019-03-23T23:05:09.726Z,77.63
2019-03-23T23:07:38.195Z,84.70
2019-03-23T23:10:07.333Z,80.03
2019-03-23T23:12:35.790Z,71.53
2019-03-23T23:15:06.292Z,79.20
2019-03-23T23:17:34.729Z,73.60
2019-03-23T23:20:05.238Z,86.30
2019-03-23T23:22:33.827Z,80.37
2019-03-23T23:25:02.652Z,76.13
2019-03-23T23:27:31.101Z,73.90
2019-03-23T23:29:59.539Z,75.97
2019-03-23T23:32:28.102Z,76.10
2019-03-23T23:34:56.582Z,79.87
2019-03-23T23:37:25.127Z,82.87
2019-03-23T23:39:53.634Z,75.10
2019-03-23T23:42:22.163Z,77.17
2019-03-23T23:44:50.622Z,85.10
2019-03-23T23:47:19.081Z,76.73
2019-03-23T23:49:47.553Z,83.70
2019-03-23T23:52:16.045Z,66.83
2019-03-23T23:54:44.595Z,80.80
2019-03-23T23:57:13.074Z,76.73
2019-03-23T23:59:41.530Z,71.23
